Cancún International Airport
MMUN : now visible

Airfield :











YOU CAN JOIN US ON...

 
LOGIN :

Register | Disclaimer

   EN    FR    IT 

 









Legend :    VFR   Marginal VFR   IFR   Intensive IFR   Very Intensive IFR
Visi :
Ceiling :
>= 8 km
>= 3000ft
5 to 8 km
1000 to 3000 ft
1500m to 5 km
500 to 1000 ft
800 to 1500m
200 to 500 ft
< 800m
< 200 ft
Symbols :   Thunderstorms  Fog  Heavy snow  Heavy precipitations  Wind > 20 kt






- Airport Elevation : 20 ft
- IATA code : CUN


MMUN - Cancún International

CURRENT METAR :
  • 190743Z 16012KT 5SM -RA OVC015TCU 26/24 A2971 RMK 60065 8/2// INTMT RA

EXPIRED METARs :
  • 190642Z 16021KT 6SM -RA BKN015TCU OVC070 28/26 A2972 RMK 60125 8/26/ VRB COND
  • 190541Z 16019KT 5SM -RA BKN015TCU OVC070 28/26 A2973 RMK SLP069 52002 910 60215 8/26/ VRB COND
  • 190516Z 16017KT 5SM -RA BKN015TCU OVC070 27/25 A2974 RMK 8/26/ VRB COND
  • 190449Z 15010G20KT 3SM RA BKN015TCU OVC070 27/26 A2974 RMK 60125 8/26/
  • 190446Z 15013G24KT 3SM RA BKN015TCU OVC070 27/26 A2974 RMK 8/26/ RAB40
  • 190343Z 16016KT 6SM BKN015TCU BKN080 OVC220 29/26 A2975 RMK 8/237 HZ

TAF TAF MMUN
Valid from the 19 at 06:00 until the 20 at 06:00 UTC


190533Z 1906/2006 16015KT 4SM -RA BKN015CB TX32/1921Z TN24/1913Z
FM191400 15015KT 5SM HZ BKN015
FM191700 16010KT 6SM HZ BKN015CB
TEMPO 1918/1922 4SM TSRA
FM200000 12010KT 6SM HZ BKN015
MMFR FIR / North America



MET'MAP, your aeronautical weather chart ! - Copyright ORBIFLY December 2007 - Disclaimer

ORBIFLY MET'MAP TEAM :

Programming & Development : Alexandra Zaïnal
Original concept : Baudouin d'Aumeries
Technical & hardware support : Manuel Goepfert
Assistance : Marc-Olivier Méhu




SOURCES & CREDITS :

   NOAA       Earth
Advisory